x

West Lake Ontario - Grimsby (45139) Wave Buoy

4:00am - Sat 25th Nov 2017 All times are CST. -6 hours from GMT.

  • Sig Wave height 1.6ft
  • Peak Period 3s
  • Wind
    20mph, 27mph gusts
  • Sea Temp 41°f
  • Air Temp 49°f
  • Sea Pressure 998.9mb
  • West Lake Ontario - Grimsby
  • West Lake Ontario - Grimsby

More Historic Weather Station data

Upgrade to MSW Pro to gain access to the past 30 days of data for over 8000 Wavebouys and Weather Stations around the globe.

Join

Comparision Forecast

View Surf forecast
   
Sat 11/25 4:00am 1.6ft 3s 20 27 mph 998.9mb 41f 49f
3:00am 1.6ft 3s 20 25 mph 999.2mb 41f 49f
2:00am 1.6ft 3s 20 25 mph 999.8mb 41f 49f
1:00am 2ft 3s 20 25 mph 1000.1mb 41f 49f
12:00am 2.5ft 3s 27 34 mph 999.6mb 41f 50f
Fri 11/24 11:00pm 2.5ft 3s 22 29 mph 1000.7mb 41f 50f
10:00pm 2ft 3s 27 38 mph 1000.1mb 41f 51f
9:00pm 2.5ft 3s 22 31 mph 1001.5mb 41f 50f
8:00pm 2.5ft 3s 25 31 mph 1001.9mb 42f 50f
7:00pm 1.6ft 3s 25 31 mph 1002.7mb 41f 50f
6:00pm 1ft 2s 20 25 mph 1004mb 41f 50f
5:00pm 0.7ft 2s 16 20 mph 1004.6mb 41f 49f
4:00pm 1ft 3s 18 25 mph 1004.8mb 42f 48f
3:00pm 1.6ft 3s 16 20 mph 1005.2mb 42f 48f
2:00pm 1.6ft 3s 20 25 mph 1005.7mb 42f 47f
1:00pm 2ft 3s 20 27 mph 1006mb 42f 47f
12:00pm 1.6ft 3s 22 27 mph 1006.8mb 42f 47f
11:00am 2ft 3s 22 29 mph 1008.1mb 42f 46f
10:00am 1.3ft 3s 22 29 mph 1009.4mb 41f 46f
9:00am 1ft 2s 20 27 mph 1010.3mb 41f 45f
8:00am 0.7ft 2s 18 25 mph 1010.6mb 41f 43f
7:00am 0.3ft 2s 13 18 mph 1011.5mb 41f 42f
6:00am 0.3ft 2s 11 13 mph 1012mb 41f 40f
5:00am 0.3ft 2s 11 13 mph 1012.3mb 41f 39f
4:00am 0.7ft 2s 11 13 mph 1012.5mb 41f 39f
3:00am 0.3ft 2s 9 13 mph 1013.2mb 41f 40f
2:00am 0.7ft 2s 9 11 mph 1013.6mb 41f 40f
1:00am 0.7ft 3s 9 11 mph 1014mb 41f 40f
12:00am 1ft 3s 11 11 mph 1014mb 41f 40f
Thu 11/23 11:00pm 1.3ft 3s 13 18 mph 1014.3mb 41f 40f
10:00pm 1.6ft 3s 18 20 mph 1014.4mb 41f 40f
9:00pm 1.3ft 3s 18 22 mph 1014.3mb 41f 40f
8:00pm 1ft 3s 13 20 mph 1014.3mb 41f 40f
7:00pm 1ft 3s 11 16 mph 1014.2mb 41f 40f
6:00pm 1ft 3s 11 16 mph 1014.3mb 41f 40f
5:00pm 1ft 3s 13 18 mph 1014.2mb 41f 40f
4:00pm 1ft 3s 16 20 mph 1013.8mb 41f 40f
3:00pm 1ft 3s 18 20 mph 1013.5mb 41f 40f
2:00pm 1.3ft 2s 18 22 mph 1013.9mb 41f 40f
1:00pm 1.3ft 3s 18 22 mph 1014.2mb 41f 39f
12:00pm 1ft 3s 16 20 mph 1015.3mb 41f 38f
11:00am 1ft 3s 13 18 mph 1016.5mb 41f 38f
10:00am 1ft 2s 16 20 mph 1017.5mb 41f 38f
9:00am 0.7ft 2s 13 16 mph 1018.3mb 41f 37f
8:00am 0.3ft 2s 11 13 mph 1019.4mb 41f 34f
7:00am 0.3ft 2s 9 11 mph 1020.2mb 41f 34f
6:00am 0.7ft 4s 9 11 mph 1020mb 41f 34f
5:00am 0.7ft 3s 9 11 mph 1020mb 41f 33f
4:00am 0.7ft 2s 13 16 mph 1020.4mb 41f 33f
3:00am 0.7ft 2s 13 16 mph 1021.2mb 41f 33f
2:00am 1ft 2s 13 16 mph 1021.8mb 41f 33f
1:00am 1ft 3s 13 16 mph 1022.1mb 41f 33f
12:00am 1ft 3s 16 18 mph 1022.1mb 41f 33f
Wed 11/22 11:00pm 1ft 2s 16 18 mph 1022.6mb 41f 33f
10:00pm 0.7ft 2s 11 13 mph 1022.6mb 41f 32f
9:00pm 0.7ft 2s 9 11 mph 1023.2mb 41f 32f
8:00pm 0.7ft 2s 9 16 mph 1024mb 41f 33f
7:00pm 1ft 3s 9 11 mph 1024.2mb 41f 33f
6:00pm 1.6ft 3s 9 13 mph 1024.8mb 41f 32f
5:00pm 2.5ft 4s 16 20 mph 1024.8mb 41f 31f
4:00pm 2ft 4s 18 22 mph 1024.3mb 41f 32f
3:00pm 2ft 3s 18 22 mph 1023.8mb 41f 32f
2:00pm 2ft 3s 18 22 mph 1023.1mb 41f 33f
1:00pm 2.5ft 3s 16 20 mph 1022.5mb 41f 33f
12:00pm 2ft 3s 16 22 mph 1022.2mb 41f 32f
11:00am 2ft 3s 16 18 mph 1022.3mb 41f 32f
9:00am 2.5ft 4s 20 25 mph 1022.1mb 41f 33f
7:00am 2.5ft 3s 22 29 mph 1020.5mb 41f 35f
6:00am 2ft 3s 22 27 mph 1019.5mb 41f 36f
5:00am 2ft 4s 18 22 mph 1018.6mb 41f 37f
Tue 11/21 8:00pm 2ft 4s 16 18 mph 1011.6mb 42f 42f
7:00pm 1.6ft 3s 22 27 mph 1010.4mb 42f 44f
6:00pm 1.3ft 3s 16 20 mph 1009.6mb 42f 48f
5:00pm 1.3ft 3s 18 22 mph 1009.2mb 42f 48f
4:00pm 2ft 3s 18 25 mph 1008.5mb 42f 48f
3:00pm 2.5ft 4s 18 27 mph 1008.2mb 42f 49f
2:00pm 3.5ft 4s 20 25 mph 1007.2mb 42f 49f
1:00pm 3.5ft 4s 29 36 mph 1005.5mb 42f 50f